createdAt,value
2018-03-08T00:00:07.902Z,80.4
2018-03-08T00:01:10.604Z,80.4
2018-03-08T00:02:13.051Z,80.4
2018-03-08T00:03:15.747Z,80.1
2018-03-08T00:04:18.165Z,80.2
2018-03-08T00:05:20.595Z,80.2
2018-03-08T00:06:23.020Z,80.2
2018-03-08T00:07:25.444Z,80.3
2018-03-08T00:08:27.874Z,80.3
2018-03-08T00:09:30.577Z,80.4
2018-03-08T00:10:33.004Z,80.5
2018-03-08T00:11:35.442Z,80.4
2018-03-08T00:12:37.864Z,80.3
2018-03-08T00:13:40.287Z,80.2
2018-03-08T00:14:42.708Z,80.2
2018-03-08T00:15:45.426Z,80.1
2018-03-08T00:16:47.856Z,80
2018-03-08T00:17:50.286Z,80
2018-03-08T00:18:52.980Z,80.1
2018-03-08T00:19:55.400Z,80
2018-03-08T00:20:57.837Z,80.2
2018-03-08T00:22:00.263Z,80.2
2018-03-08T00:23:02.695Z,80.2
2018-03-08T00:24:05.116Z,80.3
2018-03-08T00:25:07.552Z,80.4
2018-03-08T00:26:09.964Z,80.3
2018-03-08T00:27:12.392Z,80.2
2018-03-08T00:28:14.816Z,80.1
2018-03-08T00:29:17.238Z,80
2018-03-08T00:30:19.671Z,80
2018-03-08T00:31:22.096Z,80
2018-03-08T00:32:24.513Z,80.1
2018-03-08T00:33:27.240Z,80.2
2018-03-08T00:34:29.674Z,80.2
2018-03-08T00:35:32.377Z,80.2
2018-03-08T00:36:34.810Z,80.2
2018-03-08T00:37:37.519Z,80.3
2018-03-08T00:38:39.947Z,80.3
2018-03-08T00:39:42.371Z,80.2
2018-03-08T00:40:44.794Z,80.2
2018-03-08T00:41:47.502Z,80.1
2018-03-08T00:42:49.939Z,80.1
2018-03-08T00:43:52.364Z,80.1
2018-03-08T00:44:54.779Z,80.1
2018-03-08T00:45:57.210Z,80.1
2018-03-08T00:46:59.634Z,80
2018-03-08T00:48:02.060Z,79.9
2018-03-08T00:49:04.490Z,79.9
2018-03-08T00:50:06.911Z,79.9
2018-03-08T00:51:09.332Z,80
2018-03-08T00:52:11.776Z,80
2018-03-08T00:53:14.200Z,80
2018-03-08T00:54:16.632Z,79.9
2018-03-08T00:55:19.336Z,80
2018-03-08T00:56:21.757Z,80
2018-03-08T00:57:24.173Z,80.1
2018-03-08T00:58:27.184Z,80.1
2018-03-08T00:59:29.628Z,80.1
2018-03-08T01:00:32.326Z,80.1
2018-03-08T01:01:34.747Z,80.1
2018-03-08T01:02:37.177Z,80.2
2018-03-08T01:03:39.605Z,80.1
2018-03-08T01:04:42.039Z,80
2018-03-08T01:05:44.473Z,80.1
2018-03-08T01:06:46.889Z,79.9
2018-03-08T01:07:49.370Z,79.9
2018-03-08T01:08:51.792Z,80
2018-03-08T01:09:54.221Z,80
2018-03-08T01:10:56.654Z,79.9
2018-03-08T01:11:59.073Z,79.9
2018-03-08T01:13:01.493Z,79.9
2018-03-08T01:14:03.927Z,79.8
2018-03-08T01:15:06.348Z,79.8
2018-03-08T01:16:08.778Z,79.7
2018-03-08T01:17:11.203Z,79.7
2018-03-08T01:18:13.626Z,79.8
2018-03-08T01:19:16.047Z,79.7
2018-03-08T01:20:18.475Z,79.7
2018-03-08T01:21:20.897Z,79.6
2018-03-08T01:22:23.640Z,79.4
2018-03-08T01:23:26.349Z,79.5
2018-03-08T01:24:28.767Z,79.5
2018-03-08T01:25:31.202Z,79.7
2018-03-08T01:26:33.925Z,79.6
2018-03-08T01:27:36.920Z,79.7
2018-03-08T01:28:39.636Z,79.7
2018-03-08T01:29:42.060Z,79.6
2018-03-08T01:30:44.781Z,79.7
2018-03-08T01:31:47.208Z,79.8
2018-03-08T01:32:49.616Z,79.8
2018-03-08T01:33:52.038Z,79.7
2018-03-08T01:34:54.466Z,79.8
2018-03-08T01:35:57.167Z,79.7
2018-03-08T01:36:59.592Z,79.7
2018-03-08T01:38:02.021Z,79.6
2018-03-08T01:39:04.444Z,79.6
2018-03-08T01:40:06.890Z,79.7
2018-03-08T01:41:09.299Z,79.7
2018-03-08T01:42:11.714Z,79.7
2018-03-08T01:43:14.144Z,79.7
2018-03-08T01:44:16.565Z,79.6
2018-03-08T01:45:18.994Z,79.6
2018-03-08T01:46:21.438Z,79.5
2018-03-08T01:47:24.148Z,79.6
2018-03-08T01:48:26.857Z,79.5
2018-03-08T01:49:29.283Z,79.5
2018-03-08T01:50:31.988Z,79.4
2018-03-08T01:51:34.424Z,79.5
2018-03-08T01:52:36.839Z,79.6
2018-03-08T01:53:39.266Z,79.5
2018-03-08T01:54:41.694Z,79.5
2018-03-08T01:55:44.116Z,79.6
2018-03-08T01:56:46.833Z,79.6
2018-03-08T01:57:49.267Z,79.5
2018-03-08T01:58:51.680Z,79.5
2018-03-08T01:59:54.393Z,79.4
2018-03-08T02:00:56.825Z,79.4
2018-03-08T02:01:59.246Z,79.5
2018-03-08T02:03:01.665Z,79.5
2018-03-08T02:04:04.090Z,79.4
2018-03-08T02:05:06.504Z,79.3
2018-03-08T02:06:08.949Z,79.4
2018-03-08T02:07:11.366Z,79.3
2018-03-08T02:08:13.810Z,79.2
2018-03-08T02:09:16.817Z,79.1
2018-03-08T02:10:19.234Z,79
2018-03-08T02:11:21.660Z,78.9
2018-03-08T02:12:24.086Z,78.8
2018-03-08T02:13:26.505Z,78.7
2018-03-08T02:14:28.946Z,78.7
2018-03-08T02:15:31.659Z,78.8
2018-03-08T02:16:34.076Z,78.9
2018-03-08T02:17:36.823Z,78.8
2018-03-08T02:18:39.241Z,78.8
2018-03-08T02:19:41.943Z,78.8
2018-03-08T02:20:44.371Z,78.8
2018-03-08T02:21:46.794Z,78.9
2018-03-08T02:22:49.211Z,78.9
2018-03-08T02:23:51.647Z,78.7
2018-03-08T02:24:54.360Z,78.9
2018-03-08T02:25:56.787Z,78.8
2018-03-08T02:26:59.498Z,78.8
2018-03-08T02:28:01.928Z,78.9
2018-03-08T02:29:04.634Z,78.9
2018-03-08T02:30:07.065Z,78.8
2018-03-08T02:31:09.480Z,78.8
2018-03-08T02:32:12.207Z,78.9
2018-03-08T02:33:14.633Z,78.8
2018-03-08T02:34:17.056Z,78.8
2018-03-08T02:35:19.493Z,78.8
2018-03-08T02:36:22.209Z,78.8
2018-03-08T02:37:24.633Z,78.6
2018-03-08T02:38:27.056Z,78.6
2018-03-08T02:39:29.482Z,78.6
2018-03-08T02:40:31.917Z,78.6
2018-03-08T02:41:34.324Z,78.5
2018-03-08T02:42:36.749Z,78.6
2018-03-08T02:43:39.773Z,78.7
2018-03-08T02:44:42.192Z,78.7
2018-03-08T02:45:44.610Z,78.7
2018-03-08T02:46:47.038Z,78.7
2018-03-08T02:47:49.457Z,78.7
2018-03-08T02:48:51.889Z,78.6
2018-03-08T02:49:54.326Z,78.4
2018-03-08T02:50:57.028Z,78.3
2018-03-08T02:51:59.454Z,78.3
2018-03-08T02:53:01.884Z,78.2
2018-03-08T02:54:04.301Z,78.2
2018-03-08T02:55:06.733Z,78.2
2018-03-08T02:56:09.451Z,78.4
2018-03-08T02:57:12.172Z,78.2
2018-03-08T02:58:14.890Z,78.2
2018-03-08T02:59:17.627Z,78.3
2018-03-08T03:00:20.118Z,78.3
2018-03-08T03:01:22.841Z,78.2
2018-03-08T03:02:25.264Z,78.2
2018-03-08T03:03:27.675Z,77.9
2018-03-08T03:04:30.099Z,77.9
2018-03-08T03:05:32.822Z,77.9
2018-03-08T03:06:35.236Z,78
2018-03-08T03:07:37.969Z,77.8
2018-03-08T03:08:40.395Z,77.9
2018-03-08T03:09:42.830Z,78.1
2018-03-08T03:10:45.565Z,78.2
2018-03-08T03:11:48.013Z,78.2
2018-03-08T03:12:50.406Z,78.4
2018-03-08T03:13:52.831Z,78.2
2018-03-08T03:14:55.260Z,78
2018-03-08T03:15:57.962Z,78.1
2018-03-08T03:17:00.389Z,78
2018-03-08T03:18:03.092Z,77.9
2018-03-08T03:19:05.521Z,77.9
2018-03-08T03:20:07.951Z,78.1
2018-03-08T03:21:10.370Z,78.1
2018-03-08T03:22:12.809Z,78.1
2018-03-08T03:23:15.224Z,78.2
2018-03-08T03:24:17.937Z,78.1
2018-03-08T03:25:20.353Z,78.2
2018-03-08T03:26:22.774Z,78.2
2018-03-08T03:27:25.203Z,78.3
2018-03-08T03:28:27.631Z,78.4
2018-03-08T03:29:30.044Z,78.5
2018-03-08T03:30:32.770Z,78.6
2018-03-08T03:31:35.189Z,78.8
2018-03-08T03:32:37.619Z,78.8
2018-03-08T03:33:40.637Z,78.8
2018-03-08T03:34:43.350Z,78.9
2018-03-08T03:35:45.768Z,78.8
2018-03-08T03:36:48.198Z,78.9
2018-03-08T03:37:50.621Z,78.8
2018-03-08T03:38:53.051Z,78.8
2018-03-08T03:39:55.475Z,78.8
2018-03-08T03:40:57.905Z,78.8
2018-03-08T03:42:00.611Z,78.7
2018-03-08T03:43:03.037Z,78.7
2018-03-08T03:44:05.456Z,78.7
2018-03-08T03:45:07.880Z,78.6
2018-03-08T03:46:10.301Z,78.6
2018-03-08T03:47:12.731Z,78.7
2018-03-08T03:48:15.145Z,78.6
2018-03-08T03:49:17.574Z,78.7
2018-03-08T03:50:19.996Z,78.6
2018-03-08T03:51:22.420Z,78.3
2018-03-08T03:52:24.844Z,78.4
2018-03-08T03:53:27.278Z,78.5
2018-03-08T03:54:29.703Z,78.6
2018-03-08T03:55:32.111Z,78.4
2018-03-08T03:56:34.538Z,78.5
2018-03-08T03:57:36.969Z,78.3
2018-03-08T03:58:39.393Z,78.4
2018-03-08T03:59:41.820Z,78.3
2018-03-08T04:00:44.232Z,78
2018-03-08T04:01:46.658Z,77.9
2018-03-08T04:02:49.093Z,77.9
2018-03-08T04:03:51.513Z,78
2018-03-08T04:04:54.209Z,78.1
2018-03-08T04:05:56.644Z,78.1
2018-03-08T04:06:59.065Z,78.2
2018-03-08T04:08:01.783Z,78.2
2018-03-08T04:09:04.213Z,78.4
2018-03-08T04:10:06.625Z,78.3
2018-03-08T04:11:09.043Z,78.3
2018-03-08T04:12:11.481Z,78.4
2018-03-08T04:13:13.898Z,78.4
2018-03-08T04:14:16.599Z,78.5
2018-03-08T04:15:19.022Z,78.5
2018-03-08T04:16:21.449Z,78.3
2018-03-08T04:17:23.881Z,78.4
2018-03-08T04:18:26.309Z,78.2
2018-03-08T04:19:28.716Z,78.2
2018-03-08T04:20:31.136Z,78.3
2018-03-08T04:21:33.578Z,78.3
2018-03-08T04:22:36.002Z,78.2
2018-03-08T04:23:38.419Z,78.3
2018-03-08T04:24:40.846Z,78.3
2018-03-08T04:25:43.551Z,78.4
2018-03-08T04:26:45.972Z,78.3
2018-03-08T04:27:48.407Z,78.4
2018-03-08T04:28:50.822Z,78.5
2018-03-08T04:29:53.238Z,78.5
2018-03-08T04:30:55.960Z,78.6
2018-03-08T04:31:58.380Z,78.7
2018-03-08T04:33:00.798Z,78.6
2018-03-08T04:34:03.223Z,78.5
2018-03-08T04:35:05.645Z,78.4
2018-03-08T04:36:08.361Z,78.4
2018-03-08T04:37:10.786Z,78.4
2018-03-08T04:38:13.212Z,78.4
2018-03-08T04:39:15.632Z,78.5
2018-03-08T04:40:18.341Z,78.5
2018-03-08T04:41:20.768Z,78.5
2018-03-08T04:42:23.193Z,78.5
2018-03-08T04:43:25.612Z,78.5
2018-03-08T04:44:28.038Z,78.6
2018-03-08T04:45:30.764Z,78.5
2018-03-08T04:46:33.189Z,78.5
2018-03-08T04:47:35.914Z,78.7
2018-03-08T04:48:38.617Z,78.5
2018-03-08T04:49:41.035Z,78.5
2018-03-08T04:50:43.751Z,78.5
2018-03-08T04:51:46.176Z,78.3
2018-03-08T04:52:48.604Z,78.2
2018-03-08T04:53:51.030Z,78.2
2018-03-08T04:54:53.451Z,78.2
2018-03-08T04:55:55.871Z,78.3
2018-03-08T04:56:58.305Z,78.3
2018-03-08T04:58:00.728Z,78.2
2018-03-08T04:59:03.143Z,78.3
2018-03-08T05:00:05.564Z,78.3
2018-03-08T05:01:07.989Z,78.4
2018-03-08T05:02:10.408Z,78.4
2018-03-08T05:03:13.127Z,78.4
2018-03-08T05:04:15.535Z,78.5
2018-03-08T05:05:18.249Z,78.3
2018-03-08T05:06:20.673Z,78.5
2018-03-08T05:07:23.386Z,78.4
2018-03-08T05:08:26.378Z,78.5
2018-03-08T05:09:29.082Z,78.6
2018-03-08T05:10:31.504Z,78.7
2018-03-08T05:11:34.214Z,78.7
2018-03-08T05:12:36.647Z,78.7
2018-03-08T05:13:39.348Z,78.6
2018-03-08T05:14:41.768Z,78.6
2018-03-08T05:15:44.486Z,78.6
2018-03-08T05:16:46.910Z,78.7
2018-03-08T05:17:49.343Z,78.6
2018-03-08T05:18:51.753Z,78.6
2018-03-08T05:19:54.469Z,78.7
2018-03-08T05:20:57.177Z,78.6
2018-03-08T05:21:59.595Z,78.6
2018-03-08T05:23:02.024Z,78.6
2018-03-08T05:24:04.462Z,78.6
2018-03-08T05:25:06.890Z,78.5
2018-03-08T05:26:09.318Z,78.5
2018-03-08T05:27:11.745Z,78.5
2018-03-08T05:28:14.166Z,78.5
2018-03-08T05:29:16.585Z,78.5
2018-03-08T05:30:19.010Z,78.5
2018-03-08T05:31:21.427Z,78.5
2018-03-08T05:32:23.859Z,78.4
2018-03-08T05:33:26.283Z,78.3
2018-03-08T05:34:28.987Z,78.3
2018-03-08T05:35:31.709Z,78.3
2018-03-08T05:36:34.138Z,78.3
2018-03-08T05:37:36.557Z,78.2
2018-03-08T05:38:38.985Z,78.3
2018-03-08T05:39:41.998Z,78.2
2018-03-08T05:40:44.423Z,78.3
2018-03-08T05:41:46.856Z,78.3
2018-03-08T05:42:49.276Z,78.4
2018-03-08T05:43:51.696Z,78.5
2018-03-08T05:44:54.139Z,78.5
2018-03-08T05:45:56.558Z,78.6
2018-03-08T05:46:58.974Z,78.6
2018-03-08T05:48:01.403Z,78.6
2018-03-08T05:49:03.832Z,78.6
2018-03-08T05:50:06.250Z,78.8
2018-03-08T05:51:08.965Z,78.7
2018-03-08T05:52:11.403Z,78.6
2018-03-08T05:53:13.831Z,78.5
2018-03-08T05:54:16.256Z,78.5
2018-03-08T05:55:18.685Z,78.4
2018-03-08T05:56:21.096Z,78.3
2018-03-08T05:57:23.527Z,78.3
2018-03-08T05:58:26.230Z,78.3
2018-03-08T05:59:28.646Z,78.2
2018-03-08T06:00:31.082Z,78.3
2018-03-08T06:01:33.503Z,78.4
2018-03-08T06:02:35.938Z,78.3
2018-03-08T06:03:38.370Z,78.3
2018-03-08T06:04:40.793Z,78.4
2018-03-08T06:05:43.225Z,78.2
2018-03-08T06:06:45.658Z,78.2
2018-03-08T06:07:48.084Z,78.2
2018-03-08T06:08:50.518Z,78.1
2018-03-08T06:09:52.932Z,78.1
2018-03-08T06:10:55.365Z,78.1
2018-03-08T06:11:58.075Z,78.2
2018-03-08T06:13:00.499Z,78.2
2018-03-08T06:14:02.924Z,78.2
2018-03-08T06:15:05.352Z,78.2
2018-03-08T06:16:08.068Z,78.4
2018-03-08T06:17:10.502Z,78.4
2018-03-08T06:18:12.910Z,78.2
2018-03-08T06:19:15.347Z,78.1
2018-03-08T06:20:17.766Z,78.1
2018-03-08T06:21:20.192Z,77.8
2018-03-08T06:22:22.615Z,77.8
2018-03-08T06:23:25.050Z,77.9
2018-03-08T06:24:27.782Z,78
2018-03-08T06:25:30.196Z,78
2018-03-08T06:26:32.623Z,78.1
2018-03-08T06:27:35.042Z,78
2018-03-08T06:28:37.473Z,78
2018-03-08T06:29:39.902Z,78
2018-03-08T06:30:42.896Z,77.9
2018-03-08T06:31:45.613Z,77.8
2018-03-08T06:32:48.049Z,77.9
2018-03-08T06:33:50.474Z,78.1
2018-03-08T06:34:52.910Z,78
2018-03-08T06:35:55.333Z,77.9
2018-03-08T06:36:57.756Z,78
2018-03-08T06:38:00.184Z,77.9
2018-03-08T06:39:02.665Z,78.1
2018-03-08T06:40:05.377Z,78
2018-03-08T06:41:07.804Z,78
2018-03-08T06:42:10.214Z,77.9
2018-03-08T06:43:12.933Z,77.8
2018-03-08T06:44:15.642Z,77.6
2018-03-08T06:45:18.079Z,77.8
2018-03-08T06:46:21.077Z,77.6
2018-03-08T06:47:23.785Z,77.7
2018-03-08T06:48:26.207Z,77.7
2018-03-08T06:49:28.634Z,77.5
2018-03-08T06:50:31.334Z,77.5
2018-03-08T06:51:33.758Z,77.5
2018-03-08T06:52:36.181Z,77.4
2018-03-08T06:53:38.895Z,77.4
2018-03-08T06:54:41.326Z,77.5
2018-03-08T06:55:43.742Z,77.7
2018-03-08T06:56:46.165Z,77.7
2018-03-08T06:57:48.597Z,77.7
2018-03-08T06:58:51.014Z,77.7
2018-03-08T06:59:53.449Z,77.8
2018-03-08T07:00:55.875Z,77.9
2018-03-08T07:01:58.297Z,77.9
2018-03-08T07:03:00.722Z,77.9
2018-03-08T07:04:03.148Z,78.1
2018-03-08T07:05:05.569Z,78.1
2018-03-08T07:06:08.294Z,78.1
2018-03-08T07:07:10.714Z,78.2
2018-03-08T07:08:13.126Z,78
2018-03-08T07:09:15.551Z,78
2018-03-08T07:10:17.976Z,77.9
2018-03-08T07:11:20.401Z,77.7
2018-03-08T07:12:22.819Z,77.7
2018-03-08T07:13:25.235Z,77.6
2018-03-08T07:14:27.653Z,77.5
2018-03-08T07:15:30.099Z,77.6
2018-03-08T07:16:32.518Z,77.7
2018-03-08T07:17:34.932Z,78
2018-03-08T07:18:37.650Z,78.2
2018-03-08T07:19:40.079Z,78.3
2018-03-08T07:20:42.788Z,78.2
2018-03-08T07:21:45.199Z,78.2
2018-03-08T07:22:47.914Z,78
2018-03-08T07:23:50.333Z,77.8
2018-03-08T07:24:52.760Z,77.9
2018-03-08T07:25:55.188Z,77.9
2018-03-08T07:26:57.899Z,77.9
2018-03-08T07:28:00.313Z,78
2018-03-08T07:29:02.747Z,78.2
2018-03-08T07:30:05.175Z,78.2
2018-03-08T07:31:07.609Z,78.2
2018-03-08T07:32:10.314Z,78.2
2018-03-08T07:33:12.746Z,78.3
2018-03-08T07:34:15.159Z,78.3
2018-03-08T07:35:17.886Z,78.3
2018-03-08T07:36:20.883Z,78.5
2018-03-08T07:37:23.307Z,78.4
2018-03-08T07:38:25.730Z,78.4
2018-03-08T07:39:28.155Z,78.4
2018-03-08T07:40:30.860Z,78.3
2018-03-08T07:41:33.292Z,78.2
2018-03-08T07:42:36.004Z,78.1
2018-03-08T07:43:38.425Z,77.8
2018-03-08T07:44:40.850Z,78
2018-03-08T07:45:43.274Z,78
2018-03-08T07:46:45.990Z,78.2
2018-03-08T07:47:48.411Z,78.2
2018-03-08T07:48:50.848Z,78.2
2018-03-08T07:49:53.294Z,78.2
2018-03-08T07:50:56.025Z,78.3
2018-03-08T07:51:58.666Z,78.4
2018-03-08T07:53:01.242Z,78.4
2018-03-08T07:54:04.269Z,78.4
2018-03-08T07:55:07.137Z,78.4
2018-03-08T07:56:09.545Z,78.3
2018-03-08T07:57:11.971Z,78.2
2018-03-08T07:58:14.403Z,78
2018-03-08T07:59:16.816Z,78.1
2018-03-08T08:00:19.277Z,78.2
2018-03-08T08:01:21.703Z,78.3
2018-03-08T08:02:24.132Z,78.3
2018-03-08T08:03:26.565Z,78.1
2018-03-08T08:04:29.274Z,78.2
2018-03-08T08:05:31.966Z,78.2
2018-03-08T08:06:34.396Z,78
2018-03-08T08:07:37.121Z,77.7
2018-03-08T08:08:39.545Z,77.9
2018-03-08T08:09:41.975Z,77.9
2018-03-08T08:10:44.392Z,78
2018-03-08T08:11:47.387Z,78.2
2018-03-08T08:12:49.822Z,78.2
2018-03-08T08:13:52.244Z,78.1
2018-03-08T08:14:54.941Z,77.8
2018-03-08T08:15:57.383Z,77.6
2018-03-08T08:16:59.792Z,77.6
2018-03-08T08:18:02.536Z,77.5
2018-03-08T08:19:04.933Z,77.7
2018-03-08T08:20:07.371Z,77.6
2018-03-08T08:21:09.864Z,77.8
2018-03-08T08:22:12.516Z,77.9
2018-03-08T08:23:14.951Z,78
2018-03-08T08:24:17.383Z,78.1
2018-03-08T08:25:19.806Z,78.3
2018-03-08T08:26:22.518Z,78.2
2018-03-08T08:27:25.217Z,78.2
2018-03-08T08:28:27.636Z,78.2
2018-03-08T08:29:30.373Z,78.2
2018-03-08T08:30:32.800Z,78.2
2018-03-08T08:31:35.220Z,78.1
2018-03-08T08:32:37.638Z,78.2
2018-03-08T08:33:40.065Z,78.2
2018-03-08T08:34:42.494Z,78.2
2018-03-08T08:35:44.919Z,78.3
2018-03-08T08:36:47.336Z,78.4
2018-03-08T08:37:49.763Z,78.3
2018-03-08T08:38:52.205Z,78.4
2018-03-08T08:39:54.622Z,78.3
2018-03-08T08:40:57.056Z,78.3
2018-03-08T08:41:59.477Z,78.1
2018-03-08T08:43:01.908Z,78.1
2018-03-08T08:44:04.446Z,78.1
2018-03-08T08:45:07.153Z,78.3
2018-03-08T08:46:09.859Z,78.2
2018-03-08T08:47:12.290Z,78.2
2018-03-08T08:48:14.719Z,78.1
2018-03-08T08:49:17.148Z,78
2018-03-08T08:50:19.574Z,78.1
2018-03-08T08:51:22.007Z,78.1
2018-03-08T08:52:24.442Z,78.2
2018-03-08T08:53:27.149Z,78
2018-03-08T08:54:30.259Z,77.8
2018-03-08T08:55:32.599Z,77.9
2018-03-08T08:56:35.305Z,77.9
2018-03-08T08:57:37.723Z,77.8
2018-03-08T08:58:40.150Z,78
2018-03-08T08:59:42.866Z,78
2018-03-08T09:00:45.306Z,78.1
2018-03-08T09:01:47.725Z,78.1
2018-03-08T09:02:50.158Z,77.9
2018-03-08T09:03:52.897Z,77.9
2018-03-08T09:04:55.316Z,77.8
2018-03-08T09:05:57.739Z,78
2018-03-08T09:07:00.171Z,77.9
2018-03-08T09:08:02.589Z,77.7
2018-03-08T09:09:05.596Z,77.7
2018-03-08T09:10:08.015Z,77.8
2018-03-08T09:11:10.730Z,77.7
2018-03-08T09:12:13.151Z,77.9
2018-03-08T09:13:15.899Z,78.1
2018-03-08T09:14:18.313Z,78
2018-03-08T09:15:20.749Z,77.9
2018-03-08T09:16:23.487Z,77.9
2018-03-08T09:17:25.911Z,77.8
2018-03-08T09:18:28.334Z,77.9
2018-03-08T09:19:30.757Z,77.7
2018-03-08T09:20:33.185Z,77.8
2018-03-08T09:21:35.904Z,77.9
2018-03-08T09:22:38.334Z,78
2018-03-08T09:23:41.037Z,78
2018-03-08T09:24:43.768Z,78.1
2018-03-08T09:25:46.202Z,78.2
2018-03-08T09:26:48.631Z,78.2
2018-03-08T09:27:51.055Z,78.2
2018-03-08T09:28:53.486Z,78.3
2018-03-08T09:29:55.901Z,78.3
2018-03-08T09:30:58.338Z,78.5
2018-03-08T09:32:00.771Z,78.5
2018-03-08T09:33:03.489Z,78.5
2018-03-08T09:34:05.907Z,78.4
2018-03-08T09:35:08.342Z,78.4
2018-03-08T09:36:10.765Z,78.5
2018-03-08T09:37:13.197Z,78.5
2018-03-08T09:38:15.910Z,78.5
2018-03-08T09:39:18.334Z,78.5
2018-03-08T09:40:20.764Z,78.6
2018-03-08T09:41:23.197Z,78.6
2018-03-08T09:42:25.614Z,78.6
2018-03-08T09:43:28.037Z,78.7
2018-03-08T09:44:30.460Z,78.7
2018-03-08T09:45:33.201Z,78.7
2018-03-08T09:46:35.626Z,78.7
2018-03-08T09:47:38.611Z,78.7
2018-03-08T09:48:41.036Z,78.5
2018-03-08T09:49:44.031Z,78.6
2018-03-08T09:50:46.454Z,78.5
2018-03-08T09:51:49.244Z,78.5
2018-03-08T09:52:51.616Z,78.4
2018-03-08T09:53:54.045Z,78.4
2018-03-08T09:54:56.477Z,78.2
2018-03-08T09:55:58.901Z,78.2
2018-03-08T09:57:01.329Z,78.2
2018-03-08T09:58:03.756Z,78.2
2018-03-08T09:59:06.220Z,78.3
2018-03-08T10:00:08.605Z,78.2
2018-03-08T10:01:11.354Z,78.2
2018-03-08T10:02:13.769Z,78.2
2018-03-08T10:03:16.200Z,78.2
2018-03-08T10:04:18.628Z,78.3
2018-03-08T10:05:21.646Z,78.3
2018-03-08T10:06:24.360Z,78.5
2018-03-08T10:07:26.788Z,78.5
2018-03-08T10:08:29.199Z,78.6
2018-03-08T10:09:31.641Z,78.6
2018-03-08T10:10:34.071Z,78.4
2018-03-08T10:11:37.056Z,78.5
2018-03-08T10:12:39.783Z,78.5
2018-03-08T10:13:42.201Z,78.5
2018-03-08T10:14:44.629Z,78.6
2018-03-08T10:15:47.349Z,78.7
2018-03-08T10:16:49.770Z,78.8
2018-03-08T10:17:52.195Z,78.8
2018-03-08T10:18:54.604Z,78.7
2018-03-08T10:19:57.038Z,78.7
2018-03-08T10:20:59.765Z,78.7
2018-03-08T10:22:02.184Z,78.6
2018-03-08T10:23:04.620Z,78.6
2018-03-08T10:24:07.044Z,78.7
2018-03-08T10:25:09.754Z,78.8
2018-03-08T10:26:12.195Z,78.8
2018-03-08T10:27:14.916Z,78.8
2018-03-08T10:28:17.333Z,78.9
2018-03-08T10:29:19.756Z,78.9
2018-03-08T10:30:22.185Z,78.9
2018-03-08T10:31:24.609Z,78.9
2018-03-08T10:32:27.040Z,78.8
2018-03-08T10:33:29.465Z,78.8
2018-03-08T10:34:32.183Z,78.7
2018-03-08T10:35:34.627Z,78.6
2018-03-08T10:36:37.057Z,78.5
2018-03-08T10:37:39.769Z,78.5
2018-03-08T10:38:42.201Z,78.4
2018-03-08T10:39:44.955Z,78.5
2018-03-08T10:40:47.344Z,78.7
2018-03-08T10:41:49.773Z,78.6
2018-03-08T10:42:52.188Z,78.6
2018-03-08T10:43:54.600Z,78.5
2018-03-08T10:44:57.031Z,78.6
2018-03-08T10:45:59.452Z,78.6
2018-03-08T10:47:01.901Z,78.6
2018-03-08T10:48:04.301Z,78.6
2018-03-08T10:49:06.748Z,78.4
2018-03-08T10:50:09.145Z,78.3
2018-03-08T10:51:11.573Z,78.3
2018-03-08T10:52:14.018Z,78.2
2018-03-08T10:53:16.441Z,78.3
2018-03-08T10:54:18.905Z,78.5
2018-03-08T10:55:21.301Z,78.6
2018-03-08T10:56:23.727Z,78.6
2018-03-08T10:57:26.440Z,78.7
2018-03-08T10:58:28.863Z,78.7
2018-03-08T10:59:31.279Z,78.6
2018-03-08T11:00:33.732Z,78.6
2018-03-08T11:01:36.449Z,78.7
2018-03-08T11:02:38.868Z,78.7
2018-03-08T11:03:42.333Z,78.7
2018-03-08T11:04:43.720Z,78.6
2018-03-08T11:05:46.379Z,78.4
2018-03-08T11:06:50.227Z,78.6
2018-03-08T11:07:53.867Z,78.5
2018-03-08T11:08:56.305Z,78.5
2018-03-08T11:09:58.730Z,78.3
2018-03-08T11:11:01.163Z,78.4
2018-03-08T11:12:03.619Z,78.6
2018-03-08T11:13:06.019Z,78.5
2018-03-08T11:14:08.433Z,78.5
2018-03-08T11:15:11.159Z,78.7
2018-03-08T11:16:13.574Z,78.7
2018-03-08T11:17:16.006Z,78.7
2018-03-08T11:18:18.447Z,78.5
2018-03-08T11:19:21.449Z,78.4
2018-03-08T11:20:23.876Z,78.4
2018-03-08T11:21:26.305Z,78.3
2018-03-08T11:22:28.732Z,78.3
2018-03-08T11:23:31.459Z,77.2
2018-03-08T11:24:33.884Z,77.3
2018-03-08T11:25:36.297Z,77.3
2018-03-08T11:26:38.725Z,77.4
2018-03-08T11:27:41.167Z,77.5
2018-03-08T11:28:43.594Z,77.4
2018-03-08T11:29:46.029Z,77.3
2018-03-08T11:30:48.446Z,77.4
2018-03-08T11:31:50.873Z,77.5
2018-03-08T11:32:53.606Z,77.4
2018-03-08T11:33:56.030Z,77.4
2018-03-08T11:34:58.452Z,77.3
2018-03-08T11:36:00.885Z,77.3
2018-03-08T11:37:03.310Z,77.2
2018-03-08T11:38:06.025Z,77.3
2018-03-08T11:39:08.458Z,77.4
2018-03-08T11:40:11.174Z,77.3
2018-03-08T11:41:14.180Z,77.4
2018-03-08T11:42:16.616Z,77.3
2018-03-08T11:43:19.332Z,77.3
2018-03-08T11:44:21.757Z,77.2
2018-03-08T11:45:24.189Z,77.1
2018-03-08T11:46:26.624Z,77.3
2018-03-08T11:47:29.330Z,77.2
2018-03-08T11:48:31.759Z,77.3
2018-03-08T11:49:35.831Z,77.6
2018-03-08T11:50:38.257Z,77.6
2018-03-08T11:51:40.678Z,77.6
2018-03-08T11:52:43.116Z,77.5
2018-03-08T11:53:45.535Z,77.3
2018-03-08T11:54:47.983Z,77.2
2018-03-08T11:55:50.391Z,77.2
2018-03-08T11:56:52.816Z,77.1
2018-03-08T11:57:55.241Z,77.3
2018-03-08T11:58:57.679Z,77.3
2018-03-08T12:00:00.376Z,77.1
2018-03-08T12:01:02.799Z,77
2018-03-08T12:02:05.225Z,76.9
2018-03-08T12:03:07.660Z,76.8
2018-03-08T12:04:10.093Z,77
2018-03-08T12:05:12.825Z,77
2018-03-08T12:06:15.233Z,77.1
2018-03-08T12:07:17.960Z,77.3
2018-03-08T12:08:20.385Z,77.5
2018-03-08T12:09:23.104Z,77.5
2018-03-08T12:10:25.520Z,77.3
2018-03-08T12:11:27.948Z,77.4
2018-03-08T12:12:30.370Z,77.3
2018-03-08T12:13:32.807Z,77.3
2018-03-08T12:14:35.240Z,77.2
2018-03-08T12:15:37.664Z,77.2
2018-03-08T12:16:40.099Z,77.2
2018-03-08T12:17:42.530Z,77.1
2018-03-08T12:18:44.952Z,77.1
2018-03-08T12:19:47.375Z,77.3
2018-03-08T12:20:49.808Z,77.3
2018-03-08T12:21:52.229Z,77.2
2018-03-08T12:22:54.661Z,77.2
2018-03-08T12:23:57.087Z,77.1
2018-03-08T12:24:59.512Z,77
2018-03-08T12:26:01.932Z,76.9
2018-03-08T12:27:04.663Z,77
2018-03-08T12:28:07.105Z,77.2
2018-03-08T12:29:09.528Z,77.1
2018-03-08T12:30:12.516Z,77.1
2018-03-08T12:31:14.950Z,76.8
2018-03-08T12:32:17.382Z,76.6
2018-03-08T12:33:19.814Z,76.7
2018-03-08T12:34:22.248Z,76.6
2018-03-08T12:35:25.271Z,76.6
2018-03-08T12:36:27.701Z,76.8
2018-03-08T12:37:30.417Z,76.8
2018-03-08T12:38:32.854Z,77
2018-03-08T12:39:35.705Z,77.1
2018-03-08T12:40:38.066Z,77.3
2018-03-08T12:41:40.496Z,77.8
2018-03-08T12:42:42.936Z,78.1
2018-03-08T12:43:45.654Z,78
2018-03-08T12:44:48.089Z,78.4
2018-03-08T12:45:50.811Z,78.6
2018-03-08T12:46:53.239Z,78.4
2018-03-08T12:47:55.667Z,77.9
2018-03-08T12:48:58.108Z,77.6
2018-03-08T12:50:00.542Z,77.1
2018-03-08T12:51:02.962Z,77
2018-03-08T12:52:05.396Z,76.9
2018-03-08T12:53:07.835Z,76.7
2018-03-08T12:54:10.269Z,76.7
2018-03-08T12:55:12.691Z,76.7
2018-03-08T12:56:15.116Z,76.7
2018-03-08T12:57:17.610Z,76.4
2018-03-08T12:58:19.993Z,76.2
2018-03-08T12:59:22.721Z,76
2018-03-08T13:00:25.172Z,75.8
2018-03-08T13:01:27.597Z,75.8
2018-03-08T13:02:30.030Z,75.7
2018-03-08T13:03:32.468Z,75.7
2018-03-08T13:04:34.900Z,75.6
2018-03-08T13:05:37.606Z,75.8
2018-03-08T13:06:40.039Z,75.6
2018-03-08T13:07:42.467Z,75.5
2018-03-08T13:08:45.198Z,75.5
2018-03-08T13:09:47.628Z,75.5
2018-03-08T13:10:50.335Z,75.3
2018-03-08T13:11:52.769Z,75.2
2018-03-08T13:12:55.507Z,75.2
2018-03-08T13:13:57.939Z,75
2018-03-08T13:15:00.372Z,75.2
2018-03-08T13:16:02.796Z,75.2
2018-03-08T13:17:05.891Z,75.2
2018-03-08T13:18:09.713Z,75.1
2018-03-08T13:19:14.246Z,75.4
2018-03-08T13:20:18.391Z,75.8
2018-03-08T13:21:22.906Z,75.9
2018-03-08T13:22:27.180Z,76.1
2018-03-08T13:23:30.757Z,75.8
2018-03-08T13:24:34.019Z,75.5
2018-03-08T13:25:36.453Z,75.2
2018-03-08T13:26:38.881Z,75.2
2018-03-08T13:27:41.297Z,75
2018-03-08T13:28:43.733Z,75.1
2018-03-08T13:29:46.168Z,74.8
2018-03-08T13:30:48.599Z,74.8
2018-03-08T13:31:51.039Z,75
2018-03-08T13:32:53.765Z,75.3
2018-03-08T13:33:56.191Z,75.4
2018-03-08T13:34:58.934Z,75
2018-03-08T13:36:01.656Z,74.7
2018-03-08T13:37:04.090Z,74.5
2018-03-08T13:38:06.814Z,74.5
2018-03-08T13:39:09.251Z,74.5
2018-03-08T13:40:11.673Z,74.5
2018-03-08T13:41:14.118Z,74.6
2018-03-08T13:42:16.554Z,74.8
2018-03-08T13:43:18.981Z,75
2018-03-08T13:44:21.432Z,75.1
2018-03-08T13:45:24.150Z,75.1
2018-03-08T13:46:26.570Z,75.2
2018-03-08T13:47:28.998Z,75
2018-03-08T13:48:31.433Z,75.3
2018-03-08T13:49:33.870Z,75.3
2018-03-08T13:50:36.304Z,75.1
2018-03-08T13:51:38.742Z,74.9
2018-03-08T13:52:41.170Z,74.8
2018-03-08T13:53:43.618Z,75
2018-03-08T13:54:46.059Z,75
2018-03-08T13:55:48.484Z,74.8